Terminal Aerodrome Forecast
Issued by NWS Cleveland, OH

Home | Current Version | Previous Version | Graphics & Text | Print | Product List | Glossary On
Versions: 1 2 3 4 5 6 7 8 9 10 11 12 13 14 15 16 17 18
000
FTUS41 KCLE 281100
TAFTOL
TAF
KTOL 281131Z 2812/2912 VRB03KT P6SM SKC
     FM281700 17005KT P6SM SCT250
     FM290100 14006KT P6SM OVC100
     FM291100 17010G18KT P6SM OVC080=

USA.gov is the U.S. government's official web portal to all federal, state and local government web resources and services.